createdAt,value
2019-04-28T00:02:01.712Z,9.30
2019-04-28T00:06:05.574Z,8.85
2019-04-28T00:11:21.650Z,5.67
2019-04-28T00:22:15.983Z,6.45
2019-04-28T00:27:23.279Z,6.22
2019-04-28T00:32:32.491Z,5.78
2019-04-28T00:37:43.582Z,4.87
2019-04-28T00:42:45.855Z,5.65
2019-04-28T00:48:01.103Z,7.17
2019-04-28T00:53:11.611Z,8.90
2019-04-28T00:58:21.466Z,8.55
2019-04-28T01:03:26.723Z,7.95
2019-04-28T01:08:34.365Z,8.25
2019-04-28T01:13:41.969Z,9.28
2019-04-28T01:18:52.145Z,9.93
2019-04-28T01:23:59.750Z,8.80
2019-04-28T01:29:06.615Z,12.88
2019-04-28T01:34:20.412Z,15.53
2019-04-28T01:39:27.052Z,13.85
2019-04-28T01:44:36.861Z,11.18
2019-04-28T01:49:43.769Z,15.60
2019-04-28T01:54:51.160Z,14.38
2019-04-28T01:59:59.839Z,15.98
2019-04-28T02:05:05.698Z,21.27
2019-04-28T02:10:11.933Z,19.52
2019-04-28T02:15:20.354Z,19.55
2019-04-28T02:20:26.055Z,18.35
2019-04-28T02:25:34.702Z,16.23
2019-04-28T02:30:49.406Z,16.48
2019-04-28T02:35:52.126Z,18.52
2019-04-28T02:41:04.176Z,20.20
2019-04-28T02:46:12.819Z,22.25
2019-04-28T02:51:30.872Z,19.20
2019-04-28T02:56:43.649Z,15.30
2019-04-28T03:01:44.809Z,18.62
2019-04-28T03:06:51.873Z,17.10
2019-04-28T03:12:01.514Z,17.82
2019-04-28T03:17:12.611Z,16.95
2019-04-28T03:22:17.041Z,16.40
2019-04-28T03:27:50.914Z,17.20
2019-04-28T03:33:05.784Z,15.98
2019-04-28T03:38:06.386Z,17.10
2019-04-28T03:43:14.268Z,17.35
2019-04-28T03:48:23.015Z,13.75
2019-04-28T03:53:26.631Z,15.10
2019-04-28T03:58:31.334Z,16.67
2019-04-28T04:03:42.143Z,14.95
2019-04-28T04:08:50.687Z,16.12
2019-04-28T04:14:01.556Z,14.73
2019-04-28T04:19:10.663Z,14.25
2019-04-28T04:24:16.246Z,16.55
2019-04-28T04:29:21.711Z,14.10
2019-04-28T04:34:30.119Z,18.07
2019-04-28T04:39:34.095Z,14.33
2019-04-28T04:44:41.523Z,15.45
2019-04-28T04:49:47.543Z,18.48
2019-04-28T04:54:57.650Z,15.30
2019-04-28T05:00:06.758Z,19.23
2019-04-28T05:05:13.217Z,12.93
2019-04-28T05:10:23.424Z,15.90
2019-04-28T05:15:35.742Z,12.70
2019-04-28T05:20:44.709Z,19.73
2019-04-28T05:25:55.162Z,15.13
2019-04-28T05:31:01.809Z,15.15
2019-04-28T05:36:09.855Z,19.25
2019-04-28T05:41:15.223Z,16.87
2019-04-28T05:46:21.920Z,19.35
2019-04-28T05:51:34.324Z,18.85
2019-04-28T05:56:46.545Z,19.42
2019-04-28T06:02:00.507Z,21.85
2019-04-28T06:07:10.208Z,21.68
2019-04-28T06:12:16.346Z,14.60
2019-04-28T06:17:20.812Z,19.15
2019-04-28T06:22:25.026Z,19.87
2019-04-28T06:27:29.354Z,19.30
2019-04-28T06:32:33.824Z,18.40
2019-04-28T06:37:38.034Z,17.57
2019-04-28T06:42:42.521Z,21.73
2019-04-28T06:47:46.768Z,20.55
2019-04-28T06:52:51.036Z,17.65
2019-04-28T06:57:55.315Z,15.83
2019-04-28T07:02:59.579Z,21.73
2019-04-28T07:08:04.024Z,18.82
2019-04-28T07:13:08.240Z,16.57
2019-04-28T07:18:12.501Z,16.23
2019-04-28T07:23:16.782Z,14.33
2019-04-28T07:28:21.016Z,17.05
2019-04-28T07:33:35.510Z,18.92
2019-04-28T07:38:31.234Z,16.75
2019-04-28T07:43:35.430Z,18.52
2019-04-28T07:48:39.656Z,19.20
2019-04-28T07:53:45.496Z,18.75
2019-04-28T07:58:49.786Z,19.35
2019-04-28T08:03:54.104Z,20.50
2019-04-28T08:08:58.290Z,18.52
2019-04-28T08:14:02.501Z,24.12
2019-04-28T08:19:06.930Z,21.68
2019-04-28T08:24:11.175Z,23.73
2019-04-28T08:29:15.535Z,21.25
2019-04-28T08:34:21.392Z,22.00
2019-04-28T08:39:26.808Z,21.77
2019-04-28T08:44:31.169Z,17.25
2019-04-28T08:49:35.390Z,14.07
2019-04-28T08:54:39.643Z,18.92
2019-04-28T08:59:43.892Z,21.10
2019-04-28T09:04:48.483Z,21.93
2019-04-28T09:09:52.802Z,22.50
2019-04-28T09:14:58.022Z,20.85
2019-04-28T09:20:02.621Z,17.60
2019-04-28T09:25:07.866Z,17.75
2019-04-28T09:30:12.637Z,19.02
2019-04-28T09:35:16.953Z,17.45
2019-04-28T09:40:21.152Z,18.12
2019-04-28T09:45:27.029Z,15.98
2019-04-28T09:50:31.409Z,17.92
2019-04-28T09:55:35.622Z,18.52
2019-04-28T10:00:40.648Z,16.10
2019-04-28T10:05:45.250Z,15.58
2019-04-28T10:10:51.176Z,20.40
2019-04-28T10:15:55.488Z,18.70
2019-04-28T10:20:59.799Z,18.85
2019-04-28T10:26:04.023Z,21.60
2019-04-28T10:31:08.652Z,19.85
2019-04-28T10:36:13.192Z,23.22
2019-04-28T10:41:19.044Z,22.02
2019-04-28T10:46:23.286Z,26.37
2019-04-28T10:51:27.576Z,22.75
2019-04-28T10:56:31.821Z,25.32
2019-04-28T11:01:36.075Z,26.10
2019-04-28T11:06:40.339Z,23.52
2019-04-28T11:11:44.757Z,22.48
2019-04-28T11:16:49.119Z,22.55
2019-04-28T11:21:54.472Z,22.45
2019-04-28T11:27:00.427Z,19.20
2019-04-28T11:32:04.658Z,21.50
2019-04-28T11:37:09.554Z,17.80
2019-04-28T11:42:13.979Z,17.55
2019-04-28T11:47:19.913Z,14.55
2019-04-28T11:52:24.327Z,15.98
2019-04-28T11:57:28.685Z,15.00
2019-04-28T12:02:32.966Z,13.40
2019-04-28T12:07:37.532Z,10.88
2019-04-28T12:12:47.823Z,11.38
2019-04-28T12:17:56.539Z,12.37
2019-04-28T12:23:01.035Z,11.15
2019-04-28T12:28:05.587Z,10.30
2019-04-28T12:33:10.065Z,13.80
2019-04-28T12:38:14.411Z,10.55
2019-04-28T12:43:18.786Z,12.20
2019-04-28T12:48:23.340Z,11.18
2019-04-28T12:53:27.703Z,10.70
2019-04-28T12:58:32.111Z,12.03
2019-04-28T13:03:43.635Z,12.65
2019-04-28T13:08:47.949Z,12.07
2019-04-28T13:13:52.410Z,11.20
2019-04-28T13:18:56.727Z,11.08
2019-04-28T13:24:01.342Z,11.48
2019-04-28T13:29:05.592Z,9.60
2019-04-28T13:34:12.005Z,11.88
2019-04-28T13:39:18.106Z,9.53
2019-04-28T13:44:42.408Z,11.18
2019-04-28T13:49:51.421Z,11.55
2019-04-28T13:54:57.455Z,11.65
2019-04-28T14:00:03.496Z,11.03
2019-04-28T14:05:15.336Z,13.22
2019-04-28T14:10:19.674Z,11.93
2019-04-28T14:15:24.383Z,10.05
2019-04-28T14:20:28.800Z,10.08
2019-04-28T14:25:34.933Z,11.97
2019-04-28T14:30:39.209Z,9.30
2019-04-28T14:35:43.435Z,9.03
2019-04-28T14:40:47.655Z,10.10
2019-04-28T14:45:51.888Z,11.05
2019-04-28T14:50:56.078Z,7.60
2019-04-28T14:56:00.350Z,9.05
2019-04-28T15:01:18.136Z,8.15
2019-04-28T15:06:23.983Z,8.75
2019-04-28T15:11:32.476Z,17.98
2019-04-28T15:16:36.666Z,22.67
2019-04-28T15:21:40.883Z,17.67
2019-04-28T15:26:45.082Z,22.13
2019-04-28T15:31:49.327Z,21.37
2019-04-28T15:36:53.653Z,21.40
2019-04-28T15:41:57.974Z,25.77
2019-04-28T15:47:04.519Z,23.95
2019-04-28T15:52:08.871Z,22.55
2019-04-28T15:57:13.145Z,18.20
2019-04-28T16:02:17.372Z,19.65
2019-04-28T16:07:25.093Z,20.35
2019-04-28T16:12:27.629Z,13.65
2019-04-28T16:17:31.862Z,15.55
2019-04-28T16:22:36.070Z,15.18
2019-04-28T16:27:40.293Z,13.18
2019-04-28T16:32:44.544Z,12.98
2019-04-28T16:37:48.798Z,12.93
2019-04-28T16:42:53.249Z,11.35
2019-04-28T16:47:57.564Z,10.72
2019-04-28T16:53:01.815Z,10.63
2019-04-28T16:58:07.671Z,10.08
2019-04-28T17:03:13.603Z,12.55
2019-04-28T17:08:18.028Z,11.75
2019-04-28T17:13:22.461Z,10.00
2019-04-28T17:18:26.879Z,9.30
2019-04-28T17:23:31.926Z,9.83
2019-04-28T17:28:36.423Z,10.40
2019-04-28T17:33:40.739Z,11.48
2019-04-28T17:38:45.044Z,11.65
2019-04-28T17:43:49.398Z,10.55
2019-04-28T17:48:58.718Z,11.60
2019-04-28T17:54:04.751Z,11.95
2019-04-28T17:59:09.404Z,15.48
2019-04-28T18:04:36.679Z,15.85
2019-04-28T18:09:41.558Z,17.20
2019-04-28T18:14:47.795Z,16.10
2019-04-28T18:19:53.885Z,15.75
2019-04-28T18:24:58.335Z,16.35
2019-04-28T18:30:03.125Z,19.17
2019-04-28T18:35:12.259Z,18.35
2019-04-28T18:40:26.882Z,18.60
2019-04-28T18:45:32.761Z,18.10
2019-04-28T18:50:37.075Z,20.60
2019-04-28T18:55:41.316Z,25.30
2019-04-28T19:00:47.145Z,25.92
2019-04-28T19:05:53.008Z,23.83
2019-04-28T19:11:00.484Z,24.87
2019-04-28T19:16:09.442Z,25.82
2019-04-28T19:21:13.647Z,47.70
2019-04-28T19:26:18.011Z,31.55
2019-04-28T19:31:22.232Z,33.33
2019-04-28T19:36:26.446Z,28.02
2019-04-28T19:42:07.316Z,30.88
2019-04-28T19:53:35.133Z,43.85
2019-04-28T19:58:45.815Z,52.03
2019-04-28T20:03:53.684Z,55.75
2019-04-28T20:09:13.350Z,42.35
2019-04-28T20:14:07.247Z,41.65
2019-04-28T20:19:21.907Z,39.23
2019-04-28T20:24:30.915Z,41.45
2019-04-28T20:29:46.673Z,35.48
2019-04-28T20:34:55.083Z,40.05
2019-04-28T20:40:09.024Z,46.02
2019-04-28T20:45:18.633Z,52.90
2019-04-28T20:50:30.651Z,45.92
2019-04-28T20:55:39.364Z,42.70
2019-04-28T21:00:51.572Z,79.15
2019-04-28T21:05:55.366Z,71.90
2019-04-28T21:11:17.014Z,66.72
2019-04-28T21:16:23.588Z,64.05
2019-04-28T21:21:39.223Z,56.83
2019-04-28T21:27:08.357Z,53.70
2019-04-28T21:32:13.694Z,50.88
2019-04-28T21:37:24.785Z,45.55
2019-04-28T21:42:58.031Z,43.48
2019-04-28T21:53:16.423Z,39.75
2019-04-28T21:58:32.522Z,43.10
2019-04-28T22:03:42.793Z,41.58
2019-04-28T22:08:43.354Z,44.70
2019-04-28T22:13:51.058Z,42.15
2019-04-28T22:19:00.068Z,43.95
2019-04-28T22:24:17.459Z,42.67
2019-04-28T22:29:29.546Z,42.88
2019-04-28T22:35:00.047Z,44.90
2019-04-28T22:39:47.180Z,43.85
2019-04-28T22:44:56.136Z,41.58
2019-04-28T22:50:15.912Z,42.43
2019-04-28T22:55:22.116Z,43.50
2019-04-28T23:00:41.988Z,44.40
2019-04-28T23:05:50.396Z,43.70
2019-04-28T23:11:13.870Z,39.95
2019-04-28T23:21:19.365Z,48.23
2019-04-28T23:26:31.214Z,41.75
2019-04-28T23:31:37.405Z,41.30
2019-04-28T23:36:46.296Z,45.73
2019-04-28T23:42:15.602Z,41.25
2019-04-28T23:47:28.000Z,41.23
2019-04-28T23:52:36.905Z,45.25
2019-04-28T23:57:46.146Z,40.12
